<?xml version="1.0" encoding="UTF-8" standalone="no" ?>
<gpx xmlns="http://www.topografix.com/GPX/1/1" xmlns:xsi="http://www.w3.org/2001/XMLSchema-instance" xsi:schemaLocation="http://www.topografix.com/GPX/1/1 http://www.topografix.com/GPX/1/1/gpx.xsd" version="1.1" creator="VisuGPX - https://www.visugpx.com">
  <metadata>
    <name>14 Houlgate</name>
    <desc><![CDATA[Les randonnées d'oncle GG.
Randonnée de moyenne difficulté, autour de houlgate.]]></desc>
  </metadata>
  <trk>
    <name><![CDATA[--Houlgate-- OR-5805408:houlgate]]></name>
    <trkseg>
      <trkpt lat="49.29562" lon="-0.06292">
        <ele>22</ele>
        <time>2016-03-08T20:28:32Z</time>
      </trkpt>
      <trkpt lat="49.2956" lon="-0.06011">
        <ele>28</ele>
        <time>2016-03-08T20:30:32Z</time>
      </trkpt>
      <trkpt lat="49.29542" lon="-0.05704">
        <ele>29</ele>
        <time>2016-03-08T20:32:32Z</time>
      </trkpt>
      <trkpt lat="49.29632" lon="-0.05625">
        <ele>28</ele>
        <time>2016-03-08T20:34:32Z</time>
      </trkpt>
      <trkpt lat="49.29657" lon="-0.05567">
        <ele>29</ele>
        <time>2016-03-08T20:36:32Z</time>
      </trkpt>
      <trkpt lat="49.29711" lon="-0.05303">
        <ele>41</ele>
        <time>2016-03-08T20:38:32Z</time>
      </trkpt>
      <trkpt lat="49.29737" lon="-0.05273">
        <ele>44</ele>
        <time>2016-03-08T20:40:32Z</time>
      </trkpt>
      <trkpt lat="49.29784" lon="-0.05239">
        <ele>51</ele>
        <time>2016-03-08T20:42:32Z</time>
      </trkpt>
      <trkpt lat="49.29862" lon="-0.05179">
        <ele>62</ele>
        <time>2016-03-08T20:44:32Z</time>
      </trkpt>
      <trkpt lat="49.29883" lon="-0.05146">
        <ele>66</ele>
        <time>2016-03-08T20:46:32Z</time>
      </trkpt>
      <trkpt lat="49.29889" lon="-0.05058">
        <ele>73</ele>
        <time>2016-03-08T20:48:32Z</time>
      </trkpt>
      <trkpt lat="49.29931" lon="-0.05084">
        <ele>73</ele>
        <time>2016-03-08T20:50:32Z</time>
      </trkpt>
      <trkpt lat="49.29965" lon="-0.05095">
        <ele>73</ele>
        <time>2016-03-08T20:52:32Z</time>
      </trkpt>
      <trkpt lat="49.30089" lon="-0.05058">
        <ele>76</ele>
        <time>2016-03-08T20:54:32Z</time>
      </trkpt>
      <trkpt lat="49.30145" lon="-0.05035">
        <ele>80</ele>
        <time>2016-03-08T20:56:32Z</time>
      </trkpt>
      <trkpt lat="49.30193" lon="-0.05005">
        <ele>85</ele>
        <time>2016-03-08T20:58:32Z</time>
      </trkpt>
      <trkpt lat="49.30225" lon="-0.05009">
        <ele>87</ele>
        <time>2016-03-08T21:00:32Z</time>
      </trkpt>
      <trkpt lat="49.30267" lon="-0.04938">
        <ele>94</ele>
        <time>2016-03-08T21:02:32Z</time>
      </trkpt>
      <trkpt lat="49.3032" lon="-0.04816">
        <ele>102</ele>
        <time>2016-03-08T21:04:32Z</time>
      </trkpt>
      <trkpt lat="49.30377" lon="-0.04814">
        <ele>107</ele>
        <time>2016-03-08T21:06:32Z</time>
      </trkpt>
      <trkpt lat="49.30408" lon="-0.04782">
        <ele>111</ele>
        <time>2016-03-08T21:08:32Z</time>
      </trkpt>
      <trkpt lat="49.30435" lon="-0.04767">
        <ele>113</ele>
        <time>2016-03-08T21:10:32Z</time>
      </trkpt>
      <trkpt lat="49.30484" lon="-0.0479">
        <ele>115</ele>
        <time>2016-03-08T21:12:32Z</time>
      </trkpt>
      <trkpt lat="49.30521" lon="-0.04814">
        <ele>115</ele>
        <time>2016-03-08T21:14:32Z</time>
      </trkpt>
      <trkpt lat="49.3057" lon="-0.04835">
        <ele>114</ele>
        <time>2016-03-08T21:16:32Z</time>
      </trkpt>
      <trkpt lat="49.30619" lon="-0.04844">
        <ele>114</ele>
        <time>2016-03-08T21:18:32Z</time>
      </trkpt>
      <trkpt lat="49.3065" lon="-0.04767">
        <ele>116</ele>
        <time>2016-03-08T21:20:32Z</time>
      </trkpt>
      <trkpt lat="49.30671" lon="-0.04674">
        <ele>116</ele>
        <time>2016-03-08T21:22:32Z</time>
      </trkpt>
      <trkpt lat="49.30685" lon="-0.04597">
        <ele>117</ele>
        <time>2016-03-08T21:24:32Z</time>
      </trkpt>
      <trkpt lat="49.30696" lon="-0.04503">
        <ele>118</ele>
        <time>2016-03-08T21:26:32Z</time>
      </trkpt>
      <trkpt lat="49.30717" lon="-0.0443">
        <ele>118</ele>
        <time>2016-03-08T21:28:32Z</time>
      </trkpt>
      <trkpt lat="49.30751" lon="-0.04335">
        <ele>117</ele>
        <time>2016-03-08T21:30:32Z</time>
      </trkpt>
      <trkpt lat="49.30765" lon="-0.04228">
        <ele>119</ele>
        <time>2016-03-08T21:32:32Z</time>
      </trkpt>
      <trkpt lat="49.30772" lon="-0.04142">
        <ele>121</ele>
        <time>2016-03-08T21:34:32Z</time>
      </trkpt>
      <trkpt lat="49.30772" lon="-0.04061">
        <ele>121</ele>
        <time>2016-03-08T21:36:32Z</time>
      </trkpt>
      <trkpt lat="49.30783" lon="-0.03975">
        <ele>122</ele>
        <time>2016-03-08T21:38:32Z</time>
      </trkpt>
      <trkpt lat="49.30797" lon="-0.0387">
        <ele>122</ele>
        <time>2016-03-08T21:40:32Z</time>
      </trkpt>
      <trkpt lat="49.30797" lon="-0.03788">
        <ele>122</ele>
        <time>2016-03-08T21:42:32Z</time>
      </trkpt>
      <trkpt lat="49.30755" lon="-0.03646">
        <ele>123</ele>
        <time>2016-03-08T21:44:32Z</time>
      </trkpt>
      <trkpt lat="49.30794" lon="-0.03651">
        <ele>122</ele>
        <time>2016-03-08T21:46:32Z</time>
      </trkpt>
      <trkpt lat="49.30817" lon="-0.03554">
        <ele>124</ele>
        <time>2016-03-08T21:48:32Z</time>
      </trkpt>
      <trkpt lat="49.30852" lon="-0.03451">
        <ele>124</ele>
        <time>2016-03-08T21:50:32Z</time>
      </trkpt>
      <trkpt lat="49.30892" lon="-0.03376">
        <ele>124</ele>
        <time>2016-03-08T21:52:32Z</time>
      </trkpt>
      <trkpt lat="49.30937" lon="-0.03262">
        <ele>125</ele>
        <time>2016-03-08T21:54:32Z</time>
      </trkpt>
      <trkpt lat="49.31001" lon="-0.03303">
        <ele>123</ele>
        <time>2016-03-08T21:56:32Z</time>
      </trkpt>
      <trkpt lat="49.31034" lon="-0.03307">
        <ele>122</ele>
        <time>2016-03-08T21:58:32Z</time>
      </trkpt>
      <trkpt lat="49.3111" lon="-0.03252">
        <ele>121</ele>
        <time>2016-03-08T22:00:32Z</time>
      </trkpt>
      <trkpt lat="49.31158" lon="-0.03164">
        <ele>121</ele>
        <time>2016-03-08T22:02:32Z</time>
      </trkpt>
      <trkpt lat="49.31218" lon="-0.03099">
        <ele>120</ele>
        <time>2016-03-08T22:04:32Z</time>
      </trkpt>
      <trkpt lat="49.31255" lon="-0.03116">
        <ele>119</ele>
        <time>2016-03-08T22:06:32Z</time>
      </trkpt>
      <trkpt lat="49.31276" lon="-0.02988">
        <ele>119</ele>
        <time>2016-03-08T22:08:32Z</time>
      </trkpt>
      <trkpt lat="49.31264" lon="-0.02835">
        <ele>122</ele>
        <time>2016-03-08T22:10:32Z</time>
      </trkpt>
      <trkpt lat="49.31306" lon="-0.02677">
        <ele>121</ele>
        <time>2016-03-08T22:12:32Z</time>
      </trkpt>
      <trkpt lat="49.31334" lon="-0.02604">
        <ele>122</ele>
        <time>2016-03-08T22:14:32Z</time>
      </trkpt>
      <trkpt lat="49.31387" lon="-0.0252">
        <ele>118</ele>
        <time>2016-03-08T22:16:32Z</time>
      </trkpt>
      <trkpt lat="49.31414" lon="-0.02449">
        <ele>117</ele>
        <time>2016-03-08T22:18:32Z</time>
      </trkpt>
      <trkpt lat="49.3146" lon="-0.02316">
        <ele>116</ele>
        <time>2016-03-08T22:20:32Z</time>
      </trkpt>
      <trkpt lat="49.31462" lon="-0.02192">
        <ele>117</ele>
        <time>2016-03-08T22:22:32Z</time>
      </trkpt>
      <trkpt lat="49.31516" lon="-0.02147">
        <ele>115</ele>
        <time>2016-03-08T22:24:32Z</time>
      </trkpt>
      <trkpt lat="49.3154" lon="-0.02089">
        <ele>113</ele>
        <time>2016-03-08T22:26:32Z</time>
      </trkpt>
      <trkpt lat="49.31562" lon="-0.02005">
        <ele>110</ele>
        <time>2016-03-08T22:28:32Z</time>
      </trkpt>
      <trkpt lat="49.3159" lon="-0.0193">
        <ele>105</ele>
        <time>2016-03-08T22:30:32Z</time>
      </trkpt>
      <trkpt lat="49.31624" lon="-0.01883">
        <ele>97</ele>
        <time>2016-03-08T22:32:32Z</time>
      </trkpt>
      <trkpt lat="49.31671" lon="-0.01863">
        <ele>90</ele>
        <time>2016-03-08T22:34:32Z</time>
      </trkpt>
      <trkpt lat="49.31723" lon="-0.01859">
        <ele>85</ele>
        <time>2016-03-08T22:36:32Z</time>
      </trkpt>
      <trkpt lat="49.31758" lon="-0.01838">
        <ele>83</ele>
        <time>2016-03-08T22:38:32Z</time>
      </trkpt>
      <trkpt lat="49.31782" lon="-0.01777">
        <ele>81</ele>
        <time>2016-03-08T22:40:32Z</time>
      </trkpt>
      <trkpt lat="49.31794" lon="-0.0172">
        <ele>79</ele>
        <time>2016-03-08T22:42:32Z</time>
      </trkpt>
      <trkpt lat="49.31769" lon="-0.01576">
        <ele>77</ele>
        <time>2016-03-08T22:44:32Z</time>
      </trkpt>
      <trkpt lat="49.31734" lon="-0.01438">
        <ele>80</ele>
        <time>2016-03-08T22:46:32Z</time>
      </trkpt>
      <trkpt lat="49.31729" lon="-0.01391">
        <ele>81</ele>
        <time>2016-03-08T22:48:32Z</time>
      </trkpt>
      <trkpt lat="49.31741" lon="-0.01342">
        <ele>83</ele>
        <time>2016-03-08T22:50:32Z</time>
      </trkpt>
      <trkpt lat="49.31768" lon="-0.01303">
        <ele>82</ele>
        <time>2016-03-08T22:52:32Z</time>
      </trkpt>
      <trkpt lat="49.31779" lon="-0.0123">
        <ele>81</ele>
        <time>2016-03-08T22:54:32Z</time>
      </trkpt>
      <trkpt lat="49.31807" lon="-0.01149">
        <ele>76</ele>
        <time>2016-03-08T22:56:32Z</time>
      </trkpt>
      <trkpt lat="49.31835" lon="-0.01093">
        <ele>69</ele>
        <time>2016-03-08T22:58:32Z</time>
      </trkpt>
      <trkpt lat="49.31853" lon="-0.01007">
        <ele>62</ele>
        <time>2016-03-08T23:00:32Z</time>
      </trkpt>
      <trkpt lat="49.31899" lon="-0.00979">
        <ele>56</ele>
        <time>2016-03-08T23:02:32Z</time>
      </trkpt>
      <trkpt lat="49.31936" lon="-0.0096">
        <ele>53</ele>
        <time>2016-03-08T23:04:32Z</time>
      </trkpt>
      <trkpt lat="49.31983" lon="-0.00919">
        <ele>49</ele>
        <time>2016-03-08T23:06:32Z</time>
      </trkpt>
      <trkpt lat="49.32003" lon="-0.00861">
        <ele>44</ele>
        <time>2016-03-08T23:08:32Z</time>
      </trkpt>
      <trkpt lat="49.32011" lon="-0.00803">
        <ele>38</ele>
        <time>2016-03-08T23:10:32Z</time>
      </trkpt>
      <trkpt lat="49.32036" lon="-0.00709">
        <ele>27</ele>
        <time>2016-03-08T23:12:32Z</time>
      </trkpt>
      <trkpt lat="49.3205" lon="-0.00644">
        <ele>22</ele>
        <time>2016-03-08T23:14:32Z</time>
      </trkpt>
      <trkpt lat="49.32041" lon="-0.00587">
        <ele>21</ele>
        <time>2016-03-08T23:16:32Z</time>
      </trkpt>
      <trkpt lat="49.3199" lon="-0.00608">
        <ele>26</ele>
        <time>2016-03-08T23:18:32Z</time>
      </trkpt>
      <trkpt lat="49.31948" lon="-0.00634">
        <ele>30</ele>
        <time>2016-03-08T23:20:32Z</time>
      </trkpt>
      <trkpt lat="49.31897" lon="-0.00649">
        <ele>35</ele>
        <time>2016-03-08T23:22:32Z</time>
      </trkpt>
      <trkpt lat="49.31867" lon="-0.00655">
        <ele>38</ele>
        <time>2016-03-08T23:24:32Z</time>
      </trkpt>
      <trkpt lat="49.31764" lon="-0.00747">
        <ele>48</ele>
        <time>2016-03-08T23:26:32Z</time>
      </trkpt>
      <trkpt lat="49.31687" lon="-0.00825">
        <ele>54</ele>
        <time>2016-03-08T23:28:32Z</time>
      </trkpt>
      <trkpt lat="49.31667" lon="-0.00763">
        <ele>56</ele>
        <time>2016-03-08T23:30:32Z</time>
      </trkpt>
      <trkpt lat="49.31607" lon="-0.00808">
        <ele>60</ele>
        <time>2016-03-08T23:32:32Z</time>
      </trkpt>
      <trkpt lat="49.3158" lon="-0.00773">
        <ele>63</ele>
        <time>2016-03-08T23:34:32Z</time>
      </trkpt>
      <trkpt lat="49.31578" lon="-0.00711">
        <ele>65</ele>
        <time>2016-03-08T23:36:32Z</time>
      </trkpt>
      <trkpt lat="49.31601" lon="-0.00666">
        <ele>63</ele>
        <time>2016-03-08T23:38:32Z</time>
      </trkpt>
      <trkpt lat="49.31638" lon="-0.00638">
        <ele>59</ele>
        <time>2016-03-08T23:40:32Z</time>
      </trkpt>
      <trkpt lat="49.3162" lon="-0.00593">
        <ele>62</ele>
        <time>2016-03-08T23:42:32Z</time>
      </trkpt>
      <trkpt lat="49.31618" lon="-0.00537">
        <ele>64</ele>
        <time>2016-03-08T23:44:32Z</time>
      </trkpt>
      <trkpt lat="49.31573" lon="-0.00462">
        <ele>73</ele>
        <time>2016-03-08T23:46:32Z</time>
      </trkpt>
      <trkpt lat="49.31566" lon="-0.00398">
        <ele>75</ele>
        <time>2016-03-08T23:48:32Z</time>
      </trkpt>
      <trkpt lat="49.31541" lon="-0.00363">
        <ele>77</ele>
        <time>2016-03-08T23:50:32Z</time>
      </trkpt>
      <trkpt lat="49.31509" lon="-0.00374">
        <ele>81</ele>
        <time>2016-03-08T23:52:32Z</time>
      </trkpt>
      <trkpt lat="49.31483" lon="-0.0043">
        <ele>83</ele>
        <time>2016-03-08T23:54:32Z</time>
      </trkpt>
      <trkpt lat="49.31435" lon="-0.00477">
        <ele>86</ele>
        <time>2016-03-08T23:56:32Z</time>
      </trkpt>
      <trkpt lat="49.31401" lon="-0.00524">
        <ele>88</ele>
        <time>2016-03-08T23:58:32Z</time>
      </trkpt>
      <trkpt lat="49.31333" lon="-0.00565">
        <ele>90</ele>
        <time>2016-03-09T00:00:32Z</time>
      </trkpt>
      <trkpt lat="49.3127" lon="-0.00711">
        <ele>90</ele>
        <time>2016-03-09T00:02:32Z</time>
      </trkpt>
      <trkpt lat="49.31206" lon="-0.0081">
        <ele>90</ele>
        <time>2016-03-09T00:04:32Z</time>
      </trkpt>
      <trkpt lat="49.3114" lon="-0.00878">
        <ele>92</ele>
        <time>2016-03-09T00:06:32Z</time>
      </trkpt>
      <trkpt lat="49.3111" lon="-0.00943">
        <ele>94</ele>
        <time>2016-03-09T00:08:32Z</time>
      </trkpt>
      <trkpt lat="49.31049" lon="-0.01003">
        <ele>98</ele>
        <time>2016-03-09T00:10:32Z</time>
      </trkpt>
      <trkpt lat="49.31011" lon="-0.01024">
        <ele>100</ele>
        <time>2016-03-09T00:12:32Z</time>
      </trkpt>
      <trkpt lat="49.30929" lon="-0.01024">
        <ele>99</ele>
        <time>2016-03-09T00:14:32Z</time>
      </trkpt>
      <trkpt lat="49.30871" lon="-0.01029">
        <ele>99</ele>
        <time>2016-03-09T00:16:32Z</time>
      </trkpt>
      <trkpt lat="49.30797" lon="-0.01067">
        <ele>103</ele>
        <time>2016-03-09T00:18:32Z</time>
      </trkpt>
      <trkpt lat="49.30757" lon="-0.01076">
        <ele>103</ele>
        <time>2016-03-09T00:20:32Z</time>
      </trkpt>
      <trkpt lat="49.30713" lon="-0.01136">
        <ele>107</ele>
        <time>2016-03-09T00:22:32Z</time>
      </trkpt>
      <trkpt lat="49.3071" lon="-0.01046">
        <ele>98</ele>
        <time>2016-03-09T00:24:32Z</time>
      </trkpt>
      <trkpt lat="49.30649" lon="-0.00917">
        <ele>90</ele>
        <time>2016-03-09T00:26:32Z</time>
      </trkpt>
      <trkpt lat="49.30622" lon="-0.00904">
        <ele>91</ele>
        <time>2016-03-09T00:28:32Z</time>
      </trkpt>
      <trkpt lat="49.30572" lon="-0.00767">
        <ele>101</ele>
        <time>2016-03-09T00:30:32Z</time>
      </trkpt>
      <trkpt lat="49.30534" lon="-0.00675">
        <ele>98</ele>
        <time>2016-03-09T00:32:32Z</time>
      </trkpt>
      <trkpt lat="49.305" lon="-0.00675">
        <ele>98</ele>
        <time>2016-03-09T00:34:32Z</time>
      </trkpt>
      <trkpt lat="49.30454" lon="-0.00582">
        <ele>91</ele>
        <time>2016-03-09T00:36:32Z</time>
      </trkpt>
      <trkpt lat="49.30421" lon="-0.00541">
        <ele>91</ele>
        <time>2016-03-09T00:38:32Z</time>
      </trkpt>
      <trkpt lat="49.30368" lon="-0.00569">
        <ele>97</ele>
        <time>2016-03-09T00:40:32Z</time>
      </trkpt>
      <trkpt lat="49.30326" lon="-0.00625">
        <ele>101</ele>
        <time>2016-03-09T00:42:32Z</time>
      </trkpt>
      <trkpt lat="49.30289" lon="-0.00666">
        <ele>104</ele>
        <time>2016-03-09T00:44:32Z</time>
      </trkpt>
      <trkpt lat="49.30249" lon="-0.00739">
        <ele>105</ele>
        <time>2016-03-09T00:46:32Z</time>
      </trkpt>
      <trkpt lat="49.30166" lon="-0.0079">
        <ele>110</ele>
        <time>2016-03-09T00:48:32Z</time>
      </trkpt>
      <trkpt lat="49.30116" lon="-0.0081">
        <ele>114</ele>
        <time>2016-03-09T00:50:32Z</time>
      </trkpt>
      <trkpt lat="49.30051" lon="-0.00818">
        <ele>118</ele>
        <time>2016-03-09T00:52:32Z</time>
      </trkpt>
      <trkpt lat="49.30021" lon="-0.00868">
        <ele>121</ele>
        <time>2016-03-09T00:54:32Z</time>
      </trkpt>
      <trkpt lat="49.30007" lon="-0.00943">
        <ele>124</ele>
        <time>2016-03-09T00:56:32Z</time>
      </trkpt>
      <trkpt lat="49.30004" lon="-0.01054">
        <ele>128</ele>
        <time>2016-03-09T00:58:32Z</time>
      </trkpt>
      <trkpt lat="49.3" lon="-0.01224">
        <ele>131</ele>
        <time>2016-03-09T01:00:32Z</time>
      </trkpt>
      <trkpt lat="49.29931" lon="-0.01239">
        <ele>132</ele>
        <time>2016-03-09T01:02:32Z</time>
      </trkpt>
      <trkpt lat="49.29893" lon="-0.01262">
        <ele>132</ele>
        <time>2016-03-09T01:04:32Z</time>
      </trkpt>
      <trkpt lat="49.29802" lon="-0.01224">
        <ele>134</ele>
        <time>2016-03-09T01:06:32Z</time>
      </trkpt>
      <trkpt lat="49.29711" lon="-0.01192">
        <ele>132</ele>
        <time>2016-03-09T01:08:32Z</time>
      </trkpt>
      <trkpt lat="49.29654" lon="-0.01164">
        <ele>132</ele>
        <time>2016-03-09T01:10:32Z</time>
      </trkpt>
      <trkpt lat="49.29574" lon="-0.01205">
        <ele>130</ele>
        <time>2016-03-09T01:12:32Z</time>
      </trkpt>
      <trkpt lat="49.29552" lon="-0.01273">
        <ele>130</ele>
        <time>2016-03-09T01:14:32Z</time>
      </trkpt>
      <trkpt lat="49.29499" lon="-0.01258">
        <ele>129</ele>
        <time>2016-03-09T01:16:32Z</time>
      </trkpt>
      <trkpt lat="49.29447" lon="-0.01217">
        <ele>130</ele>
        <time>2016-03-09T01:18:32Z</time>
      </trkpt>
      <trkpt lat="49.2937" lon="-0.01175">
        <ele>130</ele>
        <time>2016-03-09T01:20:32Z</time>
      </trkpt>
      <trkpt lat="49.29304" lon="-0.01215">
        <ele>129</ele>
        <time>2016-03-09T01:22:32Z</time>
      </trkpt>
      <trkpt lat="49.29238" lon="-0.0125">
        <ele>129</ele>
        <time>2016-03-09T01:24:32Z</time>
      </trkpt>
      <trkpt lat="49.29182" lon="-0.01295">
        <ele>130</ele>
        <time>2016-03-09T01:26:32Z</time>
      </trkpt>
      <trkpt lat="49.29237" lon="-0.01507">
        <ele>124</ele>
        <time>2016-03-09T01:28:32Z</time>
      </trkpt>
      <trkpt lat="49.29236" lon="-0.01569">
        <ele>124</ele>
        <time>2016-03-09T01:30:32Z</time>
      </trkpt>
      <trkpt lat="49.29187" lon="-0.01584">
        <ele>125</ele>
        <time>2016-03-09T01:32:32Z</time>
      </trkpt>
      <trkpt lat="49.29135" lon="-0.01606">
        <ele>126</ele>
        <time>2016-03-09T01:34:32Z</time>
      </trkpt>
      <trkpt lat="49.2909" lon="-0.01621">
        <ele>126</ele>
        <time>2016-03-09T01:36:32Z</time>
      </trkpt>
      <trkpt lat="49.29101" lon="-0.01696">
        <ele>124</ele>
        <time>2016-03-09T01:38:32Z</time>
      </trkpt>
      <trkpt lat="49.29047" lon="-0.01747">
        <ele>120</ele>
        <time>2016-03-09T01:40:32Z</time>
      </trkpt>
      <trkpt lat="49.29016" lon="-0.01771">
        <ele>116</ele>
        <time>2016-03-09T01:42:32Z</time>
      </trkpt>
      <trkpt lat="49.29026" lon="-0.01848">
        <ele>111</ele>
        <time>2016-03-09T01:44:32Z</time>
      </trkpt>
      <trkpt lat="49.28995" lon="-0.0191">
        <ele>105</ele>
        <time>2016-03-09T01:46:32Z</time>
      </trkpt>
      <trkpt lat="49.28936" lon="-0.0199">
        <ele>110</ele>
        <time>2016-03-09T01:48:32Z</time>
      </trkpt>
      <trkpt lat="49.28862" lon="-0.02046">
        <ele>117</ele>
        <time>2016-03-09T01:50:32Z</time>
      </trkpt>
      <trkpt lat="49.2873" lon="-0.02127">
        <ele>127</ele>
        <time>2016-03-09T01:52:32Z</time>
      </trkpt>
      <trkpt lat="49.28611" lon="-0.02194">
        <ele>129</ele>
        <time>2016-03-09T01:54:32Z</time>
      </trkpt>
      <trkpt lat="49.28656" lon="-0.02357">
        <ele>128</ele>
        <time>2016-03-09T01:56:32Z</time>
      </trkpt>
      <trkpt lat="49.28687" lon="-0.02445">
        <ele>127</ele>
        <time>2016-03-09T01:58:32Z</time>
      </trkpt>
      <trkpt lat="49.28627" lon="-0.02492">
        <ele>127</ele>
        <time>2016-03-09T02:00:32Z</time>
      </trkpt>
      <trkpt lat="49.28579" lon="-0.02559">
        <ele>125</ele>
        <time>2016-03-09T02:02:32Z</time>
      </trkpt>
      <trkpt lat="49.28551" lon="-0.02584">
        <ele>124</ele>
        <time>2016-03-09T02:04:32Z</time>
      </trkpt>
      <trkpt lat="49.28579" lon="-0.02634">
        <ele>124</ele>
        <time>2016-03-09T02:06:32Z</time>
      </trkpt>
      <trkpt lat="49.28511" lon="-0.0273">
        <ele>117</ele>
        <time>2016-03-09T02:08:32Z</time>
      </trkpt>
      <trkpt lat="49.28469" lon="-0.02659">
        <ele>115</ele>
        <time>2016-03-09T02:10:32Z</time>
      </trkpt>
      <trkpt lat="49.28441" lon="-0.027">
        <ele>107</ele>
        <time>2016-03-09T02:12:32Z</time>
      </trkpt>
      <trkpt lat="49.28406" lon="-0.02644">
        <ele>106</ele>
        <time>2016-03-09T02:14:32Z</time>
      </trkpt>
      <trkpt lat="49.28354" lon="-0.02702">
        <ele>95</ele>
        <time>2016-03-09T02:16:32Z</time>
      </trkpt>
      <trkpt lat="49.28305" lon="-0.02704">
        <ele>94</ele>
        <time>2016-03-09T02:18:32Z</time>
      </trkpt>
      <trkpt lat="49.2826" lon="-0.02771">
        <ele>97</ele>
        <time>2016-03-09T02:20:32Z</time>
      </trkpt>
      <trkpt lat="49.28183" lon="-0.02807">
        <ele>105</ele>
        <time>2016-03-09T02:22:32Z</time>
      </trkpt>
      <trkpt lat="49.28163" lon="-0.02921">
        <ele>108</ele>
        <time>2016-03-09T02:24:32Z</time>
      </trkpt>
      <trkpt lat="49.2811" lon="-0.02992">
        <ele>115</ele>
        <time>2016-03-09T02:26:32Z</time>
      </trkpt>
      <trkpt lat="49.28078" lon="-0.03112">
        <ele>120</ele>
        <time>2016-03-09T02:28:32Z</time>
      </trkpt>
      <trkpt lat="49.28092" lon="-0.03316">
        <ele>123</ele>
        <time>2016-03-09T02:30:32Z</time>
      </trkpt>
      <trkpt lat="49.28023" lon="-0.03419">
        <ele>123</ele>
        <time>2016-03-09T02:32:32Z</time>
      </trkpt>
      <trkpt lat="49.281" lon="-0.03488">
        <ele>120</ele>
        <time>2016-03-09T02:34:32Z</time>
      </trkpt>
      <trkpt lat="49.28093" lon="-0.03533">
        <ele>117</ele>
        <time>2016-03-09T02:36:32Z</time>
      </trkpt>
      <trkpt lat="49.28105" lon="-0.0367">
        <ele>104</ele>
        <time>2016-03-09T02:38:32Z</time>
      </trkpt>
      <trkpt lat="49.28064" lon="-0.03764">
        <ele>92</ele>
        <time>2016-03-09T02:40:32Z</time>
      </trkpt>
      <trkpt lat="49.28042" lon="-0.03812">
        <ele>87</ele>
        <time>2016-03-09T02:42:32Z</time>
      </trkpt>
      <trkpt lat="49.27991" lon="-0.03889">
        <ele>90</ele>
        <time>2016-03-09T02:44:32Z</time>
      </trkpt>
      <trkpt lat="49.28005" lon="-0.03994">
        <ele>92</ele>
        <time>2016-03-09T02:46:32Z</time>
      </trkpt>
      <trkpt lat="49.28014" lon="-0.04024">
        <ele>90</ele>
        <time>2016-03-09T02:48:32Z</time>
      </trkpt>
      <trkpt lat="49.28028" lon="-0.04123">
        <ele>82</ele>
        <time>2016-03-09T02:50:32Z</time>
      </trkpt>
      <trkpt lat="49.28075" lon="-0.04219">
        <ele>73</ele>
        <time>2016-03-09T02:52:32Z</time>
      </trkpt>
      <trkpt lat="49.28064" lon="-0.04453">
        <ele>87</ele>
        <time>2016-03-09T02:54:32Z</time>
      </trkpt>
      <trkpt lat="49.28078" lon="-0.04726">
        <ele>82</ele>
        <time>2016-03-09T02:56:32Z</time>
      </trkpt>
      <trkpt lat="49.2807" lon="-0.04867">
        <ele>90</ele>
        <time>2016-03-09T02:58:32Z</time>
      </trkpt>
      <trkpt lat="49.28021" lon="-0.0496">
        <ele>102</ele>
        <time>2016-03-09T03:00:32Z</time>
      </trkpt>
      <trkpt lat="49.27958" lon="-0.05048">
        <ele>115</ele>
        <time>2016-03-09T03:02:32Z</time>
      </trkpt>
      <trkpt lat="49.27903" lon="-0.05185">
        <ele>125</ele>
        <time>2016-03-09T03:04:32Z</time>
      </trkpt>
      <trkpt lat="49.27953" lon="-0.05337">
        <ele>129</ele>
        <time>2016-03-09T03:06:32Z</time>
      </trkpt>
      <trkpt lat="49.28008" lon="-0.05479">
        <ele>122</ele>
        <time>2016-03-09T03:08:32Z</time>
      </trkpt>
      <trkpt lat="49.28002" lon="-0.05554">
        <ele>118</ele>
        <time>2016-03-09T03:10:32Z</time>
      </trkpt>
      <trkpt lat="49.28001" lon="-0.05663">
        <ele>108</ele>
        <time>2016-03-09T03:12:32Z</time>
      </trkpt>
      <trkpt lat="49.28005" lon="-0.05786">
        <ele>99</ele>
        <time>2016-03-09T03:14:32Z</time>
      </trkpt>
      <trkpt lat="49.28029" lon="-0.05925">
        <ele>110</ele>
        <time>2016-03-09T03:16:32Z</time>
      </trkpt>
      <trkpt lat="49.28086" lon="-0.06">
        <ele>117</ele>
        <time>2016-03-09T03:18:32Z</time>
      </trkpt>
      <trkpt lat="49.2812" lon="-0.06037">
        <ele>119</ele>
        <time>2016-03-09T03:20:32Z</time>
      </trkpt>
      <trkpt lat="49.28112" lon="-0.06155">
        <ele>128</ele>
        <time>2016-03-09T03:22:32Z</time>
      </trkpt>
      <trkpt lat="49.28106" lon="-0.06266">
        <ele>135</ele>
        <time>2016-03-09T03:24:32Z</time>
      </trkpt>
      <trkpt lat="49.2813" lon="-0.06498">
        <ele>137</ele>
        <time>2016-03-09T03:26:32Z</time>
      </trkpt>
      <trkpt lat="49.28264" lon="-0.06432">
        <ele>134</ele>
        <time>2016-03-09T03:28:32Z</time>
      </trkpt>
      <trkpt lat="49.284" lon="-0.06361">
        <ele>136</ele>
        <time>2016-03-09T03:30:32Z</time>
      </trkpt>
      <trkpt lat="49.28541" lon="-0.0626">
        <ele>131</ele>
        <time>2016-03-09T03:32:32Z</time>
      </trkpt>
      <trkpt lat="49.28625" lon="-0.062">
        <ele>125</ele>
        <time>2016-03-09T03:34:32Z</time>
      </trkpt>
      <trkpt lat="49.28681" lon="-0.06168">
        <ele>122</ele>
        <time>2016-03-09T03:36:32Z</time>
      </trkpt>
      <trkpt lat="49.28722" lon="-0.06123">
        <ele>117</ele>
        <time>2016-03-09T03:38:32Z</time>
      </trkpt>
      <trkpt lat="49.28783" lon="-0.05994">
        <ele>114</ele>
        <time>2016-03-09T03:40:32Z</time>
      </trkpt>
      <trkpt lat="49.28828" lon="-0.05923">
        <ele>113</ele>
        <time>2016-03-09T03:42:32Z</time>
      </trkpt>
      <trkpt lat="49.28867" lon="-0.05854">
        <ele>110</ele>
        <time>2016-03-09T03:44:32Z</time>
      </trkpt>
      <trkpt lat="49.28907" lon="-0.05831">
        <ele>109</ele>
        <time>2016-03-09T03:46:32Z</time>
      </trkpt>
      <trkpt lat="49.28957" lon="-0.05829">
        <ele>105</ele>
        <time>2016-03-09T03:48:32Z</time>
      </trkpt>
      <trkpt lat="49.29017" lon="-0.05837">
        <ele>98</ele>
        <time>2016-03-09T03:50:32Z</time>
      </trkpt>
      <trkpt lat="49.29075" lon="-0.05814">
        <ele>90</ele>
        <time>2016-03-09T03:52:32Z</time>
      </trkpt>
      <trkpt lat="49.29119" lon="-0.05784">
        <ele>85</ele>
        <time>2016-03-09T03:54:32Z</time>
      </trkpt>
      <trkpt lat="49.29178" lon="-0.05747">
        <ele>79</ele>
        <time>2016-03-09T03:56:32Z</time>
      </trkpt>
      <trkpt lat="49.29241" lon="-0.05721">
        <ele>69</ele>
        <time>2016-03-09T03:58:32Z</time>
      </trkpt>
      <trkpt lat="49.29308" lon="-0.05704">
        <ele>57</ele>
        <time>2016-03-09T04:00:32Z</time>
      </trkpt>
      <trkpt lat="49.29345" lon="-0.05687">
        <ele>51</ele>
        <time>2016-03-09T04:02:32Z</time>
      </trkpt>
      <trkpt lat="49.29436" lon="-0.05713">
        <ele>37</ele>
        <time>2016-03-09T04:04:32Z</time>
      </trkpt>
      <trkpt lat="49.29482" lon="-0.05691">
        <ele>34</ele>
        <time>2016-03-09T04:06:32Z</time>
      </trkpt>
      <trkpt lat="49.29527" lon="-0.05648">
        <ele>31</ele>
        <time>2016-03-09T04:08:32Z</time>
      </trkpt>
      <trkpt lat="49.29529" lon="-0.057">
        <ele>30</ele>
        <time>2016-03-09T04:10:32Z</time>
      </trkpt>
      <trkpt lat="49.29564" lon="-0.05882">
        <ele>29</ele>
        <time>2016-03-09T04:12:32Z</time>
      </trkpt>
      <trkpt lat="49.29571" lon="-0.05998">
        <ele>28</ele>
        <time>2016-03-09T04:14:32Z</time>
      </trkpt>
      <trkpt lat="49.29574" lon="-0.06125">
        <ele>25</ele>
        <time>2016-03-09T04:16:32Z</time>
      </trkpt>
      <trkpt lat="49.29581" lon="-0.06221">
        <ele>23</ele>
        <time>2016-03-09T04:18:32Z</time>
      </trkpt>
    </trkseg>
  </trk>
</gpx>